Denver, Colorado
Traffic Map
Current Weather Conditions
Denver, Colorado
Broken Clouds
Broken Clouds
25°
Feels Like: 26°
Wind Chill: 25° Ceiling: 22000
Heat Index: 26° Visibility: 10mi
Dew Point: 14° Wind: 6mph
Humidity: 50% Direction: 200° (SSW)
Pressure: 30.25in Gusts: 0mph
Raw Report DataKBKF 291758Z 20005KT 10SM FEW070 SCT110 BKN220 25/14 A3025 RMK AO2A SLP168 T02520142 10252 20152 57012
Traffic Incident Summary
Active as of:
Severity:
Category:
InformationThere was an issue retrieving the traffic information for this location. Please try a different location or try again shortly.
Advertisements
Track Severe Weather on mobile